Portada
METAR-TAF:

METAR-TAF

Aeropuertos :

Aeropuerto Internacional Wattay

Vientián, Laos

latitud: 17-57N, longitud: 102-34E, altitud: 171 m

Observación

El informe se hizo hace 35 minutos, a las 01:30 UTC
Viento 2 kt del noreste
Temperatura 25°C
Humedad 100%
Presión 1011 hPa
Visibilidad: 9000 m
Nubes dispersas a una altura de 2000 ft
Nubes dispersas a una altura de 5000 ft

METAR: VLVT 290130Z 04002KT 9000 SCT020 SCT050 25/25 Q1011 NOSIG

Hora: 09:05 (02:05 UTC)

Pronóstico

El informe se hizo hace 3 horas y 5 minutos, a las 23:00 UTC
Pronóstico válido del 29 a las 00 UTC al 29 a las 24 UTC
Viento 4 kt del suroeste
Visibilidad: 8000 m
Nubes dispersas a una altura de 2000 ft
Nubes dispersas a una altura de 5000 ft

TAF: VLVT 282300Z 2900/2924 22004KT 8000 SCT020 SCT050

Observaciones y pronósticos meteorológicos de más de 4000 aeropuertos (mensajes METAR y TAF).

Los puntos amarillos y rojos representan las estaciones disponibles.

Ponga el ratón en el punto deseado para ver el nombre de la estación.

Haga clic para ver las observaciones y los pronósticos meteorológicos.

Para cambiar el mapa : haga clic en los botones verdes con una cruz de color negro para hacer un zoom, en el botón verde con un guión para alejar o en las flechas verdes para mapas adyacentes.


METAR-TAF: